King Ba Da No.3 — BR2031 — position and weather

sailwx.info

Track history (hours):
 
Tides and Currents Weather Stations Pressure Air Temp Water Temp Dewpoint Dewpoint Depression Visibility Wind Speed Wind Dir Waves Ship Positions

King Ba Da No.3

Last reported at 2018-Apr-20 18:30 UTC. Time now 2018-Apr-20 18:39 UTC.
Position N 23°34' E 119°35'.

Length 32 m.

MMSI: 416000256.

Date/timePositionNaut miles runAvg speedWind from/ knotsBaromVisibWave heightAir tempDewpointWater temp
2018-Apr-20 18:30N 23°34' E 119°35'0 0.0
2018-Apr-20 18:00N 23°34' E 119°35'0 0.0
2018-Apr-20 17:30N 23°34' E 119°35'0 0.0
2018-Apr-20 17:00N 23°34' E 119°35'0 0.0
2018-Apr-20 16:30N 23°34' E 119°35'0 0.0
2018-Apr-20 15:57N 23°34' E 119°35'0 0.0
2018-Apr-20 15:30N 23°34' E 119°35'0 0.0
2018-Apr-20 15:01N 23°34' E 119°35'0 0.0
2018-Apr-20 14:29N 23°34' E 119°35'0 0.0
2018-Apr-20 14:01N 23°34' E 119°35'0 0.0
2018-Apr-20 13:31N 23°34' E 119°35'0 0.0
2018-Apr-20 13:01N 23°34' E 119°35'0 0.0
2018-Apr-20 12:30N 23°34' E 119°35'0 0.0
2018-Apr-20 11:59N 23°34' E 119°35'0 0.0
2018-Apr-20 11:30N 23°34' E 119°35'0 0.0
2018-Apr-20 11:00N 23°34' E 119°35'0 0.0
2018-Apr-20 10:30N 23°34' E 119°35'0 0.0
2018-Apr-20 10:00N 23°34' E 119°35'0 0.0
2018-Apr-20 09:30N 23°34' E 119°35'0 0.0
2018-Apr-20 09:00N 23°34' E 119°35'0 0.0
2018-Apr-20 08:29N 23°34' E 119°35'0 0.0
2018-Apr-20 08:00N 23°34' E 119°35'0 0.0
2018-Apr-20 07:30N 23°34' E 119°35'0 0.4
2018-Apr-20 07:00N 23°34' E 119°34'4 7.8
2018-Apr-20 06:27N 23°30' E 119°32'3 0.6
2018-Apr-20 00:22N 23°27' E 119°32'617.6
2018-Apr-20 00:00N 23°34' E 119°33'2 3.1
2018-Apr-19 23:30N 23°34' E 119°34'0 0.4
2018-Apr-19 23:00N 23°34' E 119°35'0 0.0
2018-Apr-19 22:31N 23°34' E 119°35'0 0.0
2018-Apr-19 22:00N 23°34' E 119°35'0 0.0
2018-Apr-19 21:30N 23°34' E 119°35'0 0.0
2018-Apr-19 21:00N 23°34' E 119°35'0 0.0
2018-Apr-19 20:30N 23°34' E 119°35'0 0.0
2018-Apr-19 20:00N 23°34' E 119°35'0 0.0
2018-Apr-19 19:30N 23°34' E 119°35'0 0.0
2018-Apr-19 19:00N 23°34' E 119°35'0 0.0
2018-Apr-19 18:30N 23°34' E 119°35'0 0.0
2018-Apr-19 17:59N 23°34' E 119°35'0 0.0
2018-Apr-19 17:29N 23°34' E 119°35'0 0.0
2018-Apr-19 17:00N 23°34' E 119°35'0 0.0
2018-Apr-19 16:29N 23°34' E 119°35'0 0.0
2018-Apr-19 16:00N 23°34' E 119°35'0 0.0
2018-Apr-19 15:29N 23°34' E 119°35'0 0.0
2018-Apr-19 14:59N 23°34' E 119°35'0 0.0
2018-Apr-19 14:30N 23°34' E 119°35'0 0.0
2018-Apr-19 14:00N 23°34' E 119°35'0 0.0
2018-Apr-19 13:30N 23°34' E 119°35'0 0.0
2018-Apr-19 12:59N 23°34' E 119°35'0 0.0
2018-Apr-19 12:30N 23°34' E 119°35'0 0.0
2018-Apr-19 11:59N 23°34' E 119°35'0 0.0
2018-Apr-19 11:29N 23°34' E 119°35'0 0.0
2018-Apr-19 10:59N 23°34' E 119°35'0 0.0
2018-Apr-19 10:30N 23°34' E 119°35'0 0.0
2018-Apr-19 10:00N 23°34' E 119°35'0 0.0
2018-Apr-19 09:29N 23°34' E 119°35'0 0.0
2018-Apr-19 09:00N 23°34' E 119°35'0 0.0
2018-Apr-19 08:30N 23°34' E 119°35'0 0.0
2018-Apr-19 08:00N 23°34' E 119°35'0 0.0
2018-Apr-19 07:29N 23°34' E 119°35'0 0.4
2018-Apr-19 07:00N 23°34' E 119°34'7 1.1
2018-Apr-19 00:29N 23°27' E 119°32'715.0
2018-Apr-19 00:01N 23°34' E 119°34'0 0.1
2018-Apr-18 23:30N 23°34' E 119°34'0 0.3
2018-Apr-18 22:57N 23°34' E 119°35'0 0.0
2018-Apr-18 22:30N 23°34' E 119°35'0 0.0
2018-Apr-18 22:00N 23°34' E 119°35'0 0.0
2018-Apr-18 21:28N 23°34' E 119°35'0 0.0
2018-Apr-18 21:00N 23°34' E 119°35'0 0.0
2018-Apr-18 20:29N 23°34' E 119°35'0 0.0
2018-Apr-18 19:58N 23°34' E 119°35'0 0.0
2018-Apr-18 19:29N 23°34' E 119°35'0 0.0
2018-Apr-18 19:00N 23°34' E 119°35'0 0.0
2018-Apr-18 18:30N 23°34' E 119°35'0 0.0
2018-Apr-18 18:00N 23°34' E 119°35'0 0.0
2018-Apr-18 17:30N 23°34' E 119°35'0 0.0
2018-Apr-18 17:00N 23°34' E 119°35'0 0.0
2018-Apr-18 16:30N 23°34' E 119°35'0 0.0
2018-Apr-18 16:00N 23°34' E 119°35'0 0.0
2018-Apr-18 15:30N 23°34' E 119°35'0 0.0
2018-Apr-18 15:00N 23°34' E 119°35'0 0.0
2018-Apr-18 14:29N 23°34' E 119°35'0 0.0
2018-Apr-18 14:00N 23°34' E 119°35'0 0.0
2018-Apr-18 13:30N 23°34' E 119°35'0 0.0
2018-Apr-18 12:59N 23°34' E 119°35'0 0.0
2018-Apr-18 12:30N 23°34' E 119°35'0 0.0
2018-Apr-18 12:00N 23°34' E 119°35'0 0.0
2018-Apr-18 11:30N 23°34' E 119°35'0 0.0
2018-Apr-18 10:58N 23°34' E 119°35'0 0.0
2018-Apr-18 10:30N 23°34' E 119°35'0 0.0
2018-Apr-18 10:01N 23°34' E 119°35'0 0.0
2018-Apr-18 09:31N 23°34' E 119°35'0 0.0
2018-Apr-18 09:00N 23°34' E 119°35'0 0.0
2018-Apr-18 08:30N 23°34' E 119°35'0 0.0
2018-Apr-18 07:59N 23°34' E 119°35'0 0.0
2018-Apr-18 07:30N 23°34' E 119°35'0 0.0
2018-Apr-18 07:00N 23°34' E 119°35'0 0.0
2018-Apr-18 06:30N 23°34' E 119°35'0 0.0
2018-Apr-18 06:00N 23°34' E 119°35'0 0.0
2018-Apr-18 05:30N 23°34' E 119°35'0 0.0
2018-Apr-18 04:59N 23°34' E 119°35'0 0.0
2018-Apr-18 04:28N 23°34' E 119°35'0 0.0
2018-Apr-18 03:58N 23°34' E 119°35'0 0.0
2018-Apr-18 03:30N 23°34' E 119°35'0 0.0
2018-Apr-18 03:00N 23°34' E 119°35'0 0.0
2018-Apr-18 02:30N 23°34' E 119°35'0 0.0
2018-Apr-18 02:00N 23°34' E 119°35'0 0.0
2018-Apr-18 01:28N 23°34' E 119°35'0 0.0
2018-Apr-18 01:00N 23°34' E 119°35'0 0.0
2018-Apr-18 00:30N 23°34' E 119°35'0 0.0
2018-Apr-18 00:01N 23°34' E 119°35'0 0.0
2018-Apr-17 23:30N 23°34' E 119°35'0 0.0
2018-Apr-17 23:00N 23°34' E 119°35'0 0.0
2018-Apr-17 22:30N 23°34' E 119°35'0 0.0
2018-Apr-17 21:59N 23°34' E 119°35'0 0.0
2018-Apr-17 21:30N 23°34' E 119°35'0 0.0
2018-Apr-17 20:59N 23°34' E 119°35'0 0.0
2018-Apr-17 20:30N 23°34' E 119°35'0 0.0
2018-Apr-17 20:00N 23°34' E 119°35'0 0.0
2018-Apr-17 19:30N 23°34' E 119°35'0 0.0
2018-Apr-17 19:00N 23°34' E 119°35'0 0.0
2018-Apr-17 18:30N 23°34' E 119°35'0 0.0
2018-Apr-17 17:59N 23°34' E 119°35'0 0.0
2018-Apr-17 17:30N 23°34' E 119°35'0 0.0
2018-Apr-17 17:00N 23°34' E 119°35'0 0.0
2018-Apr-17 16:30N 23°34' E 119°35'0 0.0
2018-Apr-17 16:00N 23°34' E 119°35'0 0.0
2018-Apr-17 15:31N 23°34' E 119°35'0 0.0
2018-Apr-17 14:57N 23°34' E 119°35'0 0.0
2018-Apr-17 14:30N 23°34' E 119°35'0 0.0
2018-Apr-17 14:00N 23°34' E 119°35'0 0.0
2018-Apr-17 13:30N 23°34' E 119°35'0 0.0
2018-Apr-17 13:01N 23°34' E 119°35'0 0.0
2018-Apr-17 12:30N 23°34' E 119°35'0 0.0
2018-Apr-17 11:57N 23°34' E 119°35'0 0.0
2018-Apr-17 11:30N 23°34' E 119°35'0 0.0
2018-Apr-17 11:00N 23°34' E 119°35'0 0.0
2018-Apr-17 10:30N 23°34' E 119°35'0 0.0
2018-Apr-17 10:00N 23°34' E 119°35'0 0.0
2018-Apr-17 09:22N 23°34' E 119°35'0 0.0
2018-Apr-17 09:00N 23°34' E 119°35'0 0.0
2018-Apr-17 08:29N 23°34' E 119°35'0 0.0
2018-Apr-17 08:00N 23°34' E 119°35'0 0.0
2018-Apr-17 07:30N 23°34' E 119°35'0 0.0
2018-Apr-17 07:01N 23°34' E 119°35'0 0.0
2018-Apr-17 06:28N 23°34' E 119°35'0 0.0
2018-Apr-17 05:58N 23°34' E 119°35'0 0.0
2018-Apr-17 05:30N 23°34' E 119°35'0 0.0
2018-Apr-17 05:00N 23°34' E 119°35'0 0.0
2018-Apr-17 04:29N 23°34' E 119°35'0 0.0
2018-Apr-17 04:00N 23°34' E 119°35'0 0.0
2018-Apr-17 03:30N 23°34' E 119°35'0 0.0
2018-Apr-17 03:00N 23°34' E 119°35'0 0.0
2018-Apr-17 02:30N 23°34' E 119°35'0 0.0
2018-Apr-17 02:00N 23°34' E 119°35'0 0.0
2018-Apr-17 01:27N 23°34' E 119°35'0 0.0
2018-Apr-17 01:00N 23°34' E 119°35'0 0.0
2018-Apr-17 00:30N 23°34' E 119°35'0 0.0
2018-Apr-17 00:01N 23°34' E 119°35'0 0.0
2018-Apr-16 23:30N 23°34' E 119°35'0 0.0
2018-Apr-16 23:00N 23°34' E 119°35'0 0.0
2018-Apr-16 22:30N 23°34' E 119°35'0 0.0
2018-Apr-16 22:00N 23°34' E 119°35'0 0.0
2018-Apr-16 21:30N 23°34' E 119°35'0 0.0
2018-Apr-16 20:59N 23°34' E 119°35'0 0.0
2018-Apr-16 20:30N 23°34' E 119°35'0 0.0
2018-Apr-16 20:00N 23°34' E 119°35'0 0.0
2018-Apr-16 19:30N 23°34' E 119°35'0 0.0
2018-Apr-16 19:00N 23°34' E 119°35'0 0.0
2018-Apr-16 18:30N 23°34' E 119°35'0 0.0
2018-Apr-16 18:00N 23°34' E 119°35'0 0.0
2018-Apr-16 17:30N 23°34' E 119°35'0 0.0
2018-Apr-16 16:59N 23°34' E 119°35'0 0.0
2018-Apr-16 16:30N 23°34' E 119°35'0 0.0
2018-Apr-16 15:59N 23°34' E 119°35'0 0.0
2018-Apr-16 15:28N 23°34' E 119°35'0 0.0
2018-Apr-16 15:00N 23°34' E 119°35'0 0.0
2018-Apr-16 14:30N 23°34' E 119°35'0 0.0
2018-Apr-16 14:00N 23°34' E 119°35'0 0.0
2018-Apr-16 13:31N 23°34' E 119°35'0 0.0
2018-Apr-16 13:00N 23°34' E 119°35'0 0.0
2018-Apr-16 12:30N 23°34' E 119°35'0 0.0
2018-Apr-16 11:59N 23°34' E 119°35'0 0.0
2018-Apr-16 11:30N 23°34' E 119°35'0 0.0
2018-Apr-16 11:00N 23°34' E 119°35'0 0.0
2018-Apr-16 10:29N 23°34' E 119°35'0 0.0
2018-Apr-16 10:00N 23°34' E 119°35'0 0.0
2018-Apr-16 09:29N 23°34' E 119°35'0 0.0
2018-Apr-16 09:00N 23°34' E 119°35'0 0.0
2018-Apr-16 08:30N 23°34' E 119°35'0 0.0
2018-Apr-16 08:00N 23°34' E 119°35'0 0.0
2018-Apr-16 07:30N 23°34' E 119°35'0 0.0
2018-Apr-16 07:00N 23°34' E 119°35'0 0.0
2018-Apr-16 06:30N 23°34' E 119°35'0 0.0
2018-Apr-16 06:00N 23°34' E 119°35'0 0.0
2018-Apr-16 05:29N 23°34' E 119°35'0 0.0
2018-Apr-16 05:00N 23°34' E 119°35'0 0.0
2018-Apr-16 04:27N 23°34' E 119°35'0 0.0
2018-Apr-16 03:59N 23°34' E 119°35'0 0.0
2018-Apr-16 03:30N 23°34' E 119°35'0 0.0
2018-Apr-16 02:59N 23°34' E 119°35'0 0.0
2018-Apr-16 02:27N 23°34' E 119°35'0 0.0
2018-Apr-16 02:00N 23°34' E 119°35'0 0.0
2018-Apr-16 01:30N 23°34' E 119°35'0 0.0
2018-Apr-16 01:00N 23°34' E 119°35'0 0.0
2018-Apr-16 00:30N 23°34' E 119°35'0 0.0
2018-Apr-15 06:09N 23°34' E 119°35'0 0.0
2018-Apr-15 05:57N 23°34' E 119°35'0 0.0
2018-Apr-15 03:53N 23°34' E 119°35'0 0.0
2018-Apr-15 03:30N 23°34' E 119°35'0 0.0
2018-Apr-15 03:00N 23°34' E 119°35'0 0.0
2018-Apr-15 02:31N 23°34' E 119°35'0 0.0
2018-Apr-15 02:00N 23°34' E 119°35'0 0.0
2018-Apr-15 01:28N 23°34' E 119°35'0 0.0
2018-Apr-15 00:59N 23°34' E 119°35'0 0.0
2018-Apr-15 00:13N 23°34' E 119°35'0 0.0
2018-Apr-14 23:59N 23°34' E 119°35'0 0.0
2018-Apr-14 23:30N 23°34' E 119°35'0 0.0
2018-Apr-14 23:00N 23°34' E 119°35'0 0.0
2018-Apr-14 22:29N 23°34' E 119°35'0 0.0
2018-Apr-14 22:00N 23°34' E 119°35'0 0.0
2018-Apr-14 21:30N 23°34' E 119°35'0 0.0
2018-Apr-14 20:59N 23°34' E 119°35'0 0.0
2018-Apr-14 20:31N 23°34' E 119°35'0 0.0
2018-Apr-14 20:00N 23°34' E 119°35'0 0.0
2018-Apr-14 19:29N 23°34' E 119°35'0 0.0
2018-Apr-14 19:00N 23°34' E 119°35'0 0.0
2018-Apr-14 18:30N 23°34' E 119°35'0 0.0
2018-Apr-14 17:55N 23°34' E 119°35'0 0.0
2018-Apr-14 17:30N 23°34' E 119°35'0 0.0
2018-Apr-14 17:00N 23°34' E 119°35'0 0.0
2018-Apr-14 16:30N 23°34' E 119°35'0 0.0
2018-Apr-14 15:58N 23°34' E 119°35'0 0.0
2018-Apr-14 15:30N 23°34' E 119°35'0 0.0
2018-Apr-14 15:00N 23°34' E 119°35'0 0.0
2018-Apr-14 14:29N 23°34' E 119°35'0 0.0
2018-Apr-14 14:00N 23°34' E 119°35'0 0.0
2018-Apr-14 13:29N 23°34' E 119°35'0 0.0
2018-Apr-14 13:00N 23°34' E 119°35'0 0.0
2018-Apr-14 12:31N 23°34' E 119°35'0 0.0
2018-Apr-14 12:01N 23°34' E 119°35'0 0.0
2018-Apr-14 11:30N 23°34' E 119°35'0 0.0
2018-Apr-14 10:58N 23°34' E 119°35'0 0.0
2018-Apr-14 10:30N 23°34' E 119°35'0 0.0
2018-Apr-14 10:00N 23°34' E 119°35'0 0.0
2018-Apr-14 09:30N 23°34' E 119°35'0 0.0
2018-Apr-14 09:00N 23°34' E 119°35'0 0.0
2018-Apr-14 08:29N 23°34' E 119°35'0 0.0
2018-Apr-14 08:00N 23°34' E 119°35'0 0.0
2018-Apr-14 07:29N 23°34' E 119°35'0 0.0
2018-Apr-14 06:59N 23°34' E 119°35'0 0.0
2018-Apr-14 06:30N 23°34' E 119°35'0 0.0
2018-Apr-14 05:59N 23°34' E 119°35'0 0.0
2018-Apr-14 05:30N 23°34' E 119°35'0 0.0
2018-Apr-14 05:00N 23°34' E 119°35'0 0.0
2018-Apr-14 04:26N 23°34' E 119°35'0 0.0
2018-Apr-14 04:00N 23°34' E 119°35'0 0.0
2018-Apr-14 03:30N 23°34' E 119°35'0 0.0
2018-Apr-14 02:59N 23°34' E 119°35'0 0.0
2018-Apr-14 02:31N 23°34' E 119°35'0 0.0
2018-Apr-14 02:00N 23°34' E 119°35'0 0.0
2018-Apr-14 01:29N 23°34' E 119°35'  
Track history (hours):
 
Tides and Currents Weather Stations Pressure Air Temp Water Temp Dewpoint Dewpoint Depression Visibility Wind Speed Wind Dir Waves Ship Positions

King Ba Da No.3

Last reported at 2018-Apr-20 18:30 UTC. Time now 2018-Apr-20 18:39 UTC.
Position N 23°34' E 119°35'.

Length 32 m.

MMSI: 416000256.

Date/timePositionNaut miles runAvg speedWind from/ knotsBaromVisibWave heightAir tempDewpointWater temp
2018-Apr-20 18:30N 23°34' E 119°35'0 0.0
2018-Apr-20 18:00N 23°34' E 119°35'0 0.0
2018-Apr-20 17:30N 23°34' E 119°35'0 0.0
2018-Apr-20 17:00N 23°34' E 119°35'0 0.0
2018-Apr-20 16:30N 23°34' E 119°35'0 0.0
2018-Apr-20 15:57N 23°34' E 119°35'0 0.0
2018-Apr-20 15:30N 23°34' E 119°35'0 0.0
2018-Apr-20 15:01N 23°34' E 119°35'0 0.0
2018-Apr-20 14:29N 23°34' E 119°35'0 0.0
2018-Apr-20 14:01N 23°34' E 119°35'0 0.0
2018-Apr-20 13:31N 23°34' E 119°35'0 0.0
2018-Apr-20 13:01N 23°34' E 119°35'0 0.0
2018-Apr-20 12:30N 23°34' E 119°35'0 0.0
2018-Apr-20 11:59N 23°34' E 119°35'0 0.0
2018-Apr-20 11:30N 23°34' E 119°35'0 0.0
2018-Apr-20 11:00N 23°34' E 119°35'0 0.0
2018-Apr-20 10:30N 23°34' E 119°35'0 0.0
2018-Apr-20 10:00N 23°34' E 119°35'0 0.0
2018-Apr-20 09:30N 23°34' E 119°35'0 0.0
2018-Apr-20 09:00N 23°34' E 119°35'0 0.0
2018-Apr-20 08:29N 23°34' E 119°35'0 0.0
2018-Apr-20 08:00N 23°34' E 119°35'0 0.0
2018-Apr-20 07:30N 23°34' E 119°35'0 0.4
2018-Apr-20 07:00N 23°34' E 119°34'4 7.8
2018-Apr-20 06:27N 23°30' E 119°32'3 0.6
2018-Apr-20 00:22N 23°27' E 119°32'617.6
2018-Apr-20 00:00N 23°34' E 119°33'2 3.1
2018-Apr-19 23:30N 23°34' E 119°34'0 0.4
2018-Apr-19 23:00N 23°34' E 119°35'0 0.0
2018-Apr-19 22:31N 23°34' E 119°35'0 0.0
2018-Apr-19 22:00N 23°34' E 119°35'0 0.0
2018-Apr-19 21:30N 23°34' E 119°35'0 0.0
2018-Apr-19 21:00N 23°34' E 119°35'0 0.0
2018-Apr-19 20:30N 23°34' E 119°35'0 0.0
2018-Apr-19 20:00N 23°34' E 119°35'0 0.0
2018-Apr-19 19:30N 23°34' E 119°35'0 0.0
2018-Apr-19 19:00N 23°34' E 119°35'0 0.0
2018-Apr-19 18:30N 23°34' E 119°35'0 0.0
2018-Apr-19 17:59N 23°34' E 119°35'0 0.0
2018-Apr-19 17:29N 23°34' E 119°35'0 0.0
2018-Apr-19 17:00N 23°34' E 119°35'0 0.0
2018-Apr-19 16:29N 23°34' E 119°35'0 0.0
2018-Apr-19 16:00N 23°34' E 119°35'0 0.0
2018-Apr-19 15:29N 23°34' E 119°35'0 0.0
2018-Apr-19 14:59N 23°34' E 119°35'0 0.0
2018-Apr-19 14:30N 23°34' E 119°35'0 0.0
2018-Apr-19 14:00N 23°34' E 119°35'0 0.0
2018-Apr-19 13:30N 23°34' E 119°35'0 0.0
2018-Apr-19 12:59N 23°34' E 119°35'0 0.0
2018-Apr-19 12:30N 23°34' E 119°35'0 0.0
2018-Apr-19 11:59N 23°34' E 119°35'0 0.0
2018-Apr-19 11:29N 23°34' E 119°35'0 0.0
2018-Apr-19 10:59N 23°34' E 119°35'0 0.0
2018-Apr-19 10:30N 23°34' E 119°35'0 0.0
2018-Apr-19 10:00N 23°34' E 119°35'0 0.0
2018-Apr-19 09:29N 23°34' E 119°35'0 0.0
2018-Apr-19 09:00N 23°34' E 119°35'0 0.0
2018-Apr-19 08:30N 23°34' E 119°35'0 0.0
2018-Apr-19 08:00N 23°34' E 119°35'0 0.0
2018-Apr-19 07:29N 23°34' E 119°35'0 0.4
2018-Apr-19 07:00N 23°34' E 119°34'7 1.1
2018-Apr-19 00:29N 23°27' E 119°32'715.0
2018-Apr-19 00:01N 23°34' E 119°34'0 0.1
2018-Apr-18 23:30N 23°34' E 119°34'0 0.3
2018-Apr-18 22:57N 23°34' E 119°35'0 0.0
2018-Apr-18 22:30N 23°34' E 119°35'0 0.0
2018-Apr-18 22:00N 23°34' E 119°35'0 0.0
2018-Apr-18 21:28N 23°34' E 119°35'0 0.0
2018-Apr-18 21:00N 23°34' E 119°35'0 0.0
2018-Apr-18 20:29N 23°34' E 119°35'0 0.0
2018-Apr-18 19:58N 23°34' E 119°35'0 0.0
2018-Apr-18 19:29N 23°34' E 119°35'0 0.0
2018-Apr-18 19:00N 23°34' E 119°35'0 0.0
2018-Apr-18 18:30N 23°34' E 119°35'0 0.0
2018-Apr-18 18:00N 23°34' E 119°35'0 0.0
2018-Apr-18 17:30N 23°34' E 119°35'0 0.0
2018-Apr-18 17:00N 23°34' E 119°35'0 0.0
2018-Apr-18 16:30N 23°34' E 119°35'0 0.0
2018-Apr-18 16:00N 23°34' E 119°35'0 0.0
2018-Apr-18 15:30N 23°34' E 119°35'0 0.0
2018-Apr-18 15:00N 23°34' E 119°35'0 0.0
2018-Apr-18 14:29N 23°34' E 119°35'0 0.0
2018-Apr-18 14:00N 23°34' E 119°35'0 0.0
2018-Apr-18 13:30N 23°34' E 119°35'0 0.0
2018-Apr-18 12:59N 23°34' E 119°35'0 0.0
2018-Apr-18 12:30N 23°34' E 119°35'0 0.0
2018-Apr-18 12:00N 23°34' E 119°35'0 0.0
2018-Apr-18 11:30N 23°34' E 119°35'0 0.0
2018-Apr-18 10:58N 23°34' E 119°35'0 0.0
2018-Apr-18 10:30N 23°34' E 119°35'0 0.0
2018-Apr-18 10:01N 23°34' E 119°35'0 0.0
2018-Apr-18 09:31N 23°34' E 119°35'0 0.0
2018-Apr-18 09:00N 23°34' E 119°35'0 0.0
2018-Apr-18 08:30N 23°34' E 119°35'0 0.0
2018-Apr-18 07:59N 23°34' E 119°35'0 0.0
2018-Apr-18 07:30N 23°34' E 119°35'0 0.0
2018-Apr-18 07:00N 23°34' E 119°35'0 0.0
2018-Apr-18 06:30N 23°34' E 119°35'0 0.0
2018-Apr-18 06:00N 23°34' E 119°35'0 0.0
2018-Apr-18 05:30N 23°34' E 119°35'0 0.0
2018-Apr-18 04:59N 23°34' E 119°35'0 0.0
2018-Apr-18 04:28N 23°34' E 119°35'0 0.0
2018-Apr-18 03:58N 23°34' E 119°35'0 0.0
2018-Apr-18 03:30N 23°34' E 119°35'0 0.0
2018-Apr-18 03:00N 23°34' E 119°35'0 0.0
2018-Apr-18 02:30N 23°34' E 119°35'0 0.0
2018-Apr-18 02:00N 23°34' E 119°35'0 0.0
2018-Apr-18 01:28N 23°34' E 119°35'0 0.0
2018-Apr-18 01:00N 23°34' E 119°35'0 0.0
2018-Apr-18 00:30N 23°34' E 119°35'0 0.0
2018-Apr-18 00:01N 23°34' E 119°35'0 0.0
2018-Apr-17 23:30N 23°34' E 119°35'0 0.0
2018-Apr-17 23:00N 23°34' E 119°35'0 0.0
2018-Apr-17 22:30N 23°34' E 119°35'0 0.0
2018-Apr-17 21:59N 23°34' E 119°35'0 0.0
2018-Apr-17 21:30N 23°34' E 119°35'0 0.0
2018-Apr-17 20:59N 23°34' E 119°35'0 0.0
2018-Apr-17 20:30N 23°34' E 119°35'0 0.0
2018-Apr-17 20:00N 23°34' E 119°35'0 0.0
2018-Apr-17 19:30N 23°34' E 119°35'0 0.0
2018-Apr-17 19:00N 23°34' E 119°35'0 0.0
2018-Apr-17 18:30N 23°34' E 119°35'0 0.0
2018-Apr-17 17:59N 23°34' E 119°35'0 0.0
2018-Apr-17 17:30N 23°34' E 119°35'0 0.0
2018-Apr-17 17:00N 23°34' E 119°35'0 0.0
2018-Apr-17 16:30N 23°34' E 119°35'0 0.0
2018-Apr-17 16:00N 23°34' E 119°35'0 0.0
2018-Apr-17 15:31N 23°34' E 119°35'0 0.0
2018-Apr-17 14:57N 23°34' E 119°35'0 0.0
2018-Apr-17 14:30N 23°34' E 119°35'0 0.0
2018-Apr-17 14:00N 23°34' E 119°35'0 0.0
2018-Apr-17 13:30N 23°34' E 119°35'0 0.0
2018-Apr-17 13:01N 23°34' E 119°35'0 0.0
2018-Apr-17 12:30N 23°34' E 119°35'0 0.0
2018-Apr-17 11:57N 23°34' E 119°35'0 0.0
2018-Apr-17 11:30N 23°34' E 119°35'0 0.0
2018-Apr-17 11:00N 23°34' E 119°35'0 0.0
2018-Apr-17 10:30N 23°34' E 119°35'0 0.0
2018-Apr-17 10:00N 23°34' E 119°35'0 0.0
2018-Apr-17 09:22N 23°34' E 119°35'0 0.0
2018-Apr-17 09:00N 23°34' E 119°35'0 0.0
2018-Apr-17 08:29N 23°34' E 119°35'0 0.0
2018-Apr-17 08:00N 23°34' E 119°35'0 0.0
2018-Apr-17 07:30N 23°34' E 119°35'0 0.0
2018-Apr-17 07:01N 23°34' E 119°35'0 0.0
2018-Apr-17 06:28N 23°34' E 119°35'0 0.0
2018-Apr-17 05:58N 23°34' E 119°35'0 0.0
2018-Apr-17 05:30N 23°34' E 119°35'0 0.0
2018-Apr-17 05:00N 23°34' E 119°35'0 0.0
2018-Apr-17 04:29N 23°34' E 119°35'0 0.0
2018-Apr-17 04:00N 23°34' E 119°35'0 0.0
2018-Apr-17 03:30N 23°34' E 119°35'0 0.0
2018-Apr-17 03:00N 23°34' E 119°35'0 0.0
2018-Apr-17 02:30N 23°34' E 119°35'0 0.0
2018-Apr-17 02:00N 23°34' E 119°35'0 0.0
2018-Apr-17 01:27N 23°34' E 119°35'0 0.0
2018-Apr-17 01:00N 23°34' E 119°35'0 0.0
2018-Apr-17 00:30N 23°34' E 119°35'0 0.0
2018-Apr-17 00:01N 23°34' E 119°35'0 0.0
2018-Apr-16 23:30N 23°34' E 119°35'0 0.0
2018-Apr-16 23:00N 23°34' E 119°35'0 0.0
2018-Apr-16 22:30N 23°34' E 119°35'0 0.0
2018-Apr-16 22:00N 23°34' E 119°35'0 0.0
2018-Apr-16 21:30N 23°34' E 119°35'0 0.0
2018-Apr-16 20:59N 23°34' E 119°35'0 0.0
2018-Apr-16 20:30N 23°34' E 119°35'0 0.0
2018-Apr-16 20:00N 23°34' E 119°35'0 0.0
2018-Apr-16 19:30N 23°34' E 119°35'0 0.0
2018-Apr-16 19:00N 23°34' E 119°35'0 0.0
2018-Apr-16 18:30N 23°34' E 119°35'0 0.0
2018-Apr-16 18:00N 23°34' E 119°35'0 0.0
2018-Apr-16 17:30N 23°34' E 119°35'0 0.0
2018-Apr-16 16:59N 23°34' E 119°35'0 0.0
2018-Apr-16 16:30N 23°34' E 119°35'0 0.0
2018-Apr-16 15:59N 23°34' E 119°35'0 0.0
2018-Apr-16 15:28N 23°34' E 119°35'0 0.0
2018-Apr-16 15:00N 23°34' E 119°35'0 0.0
2018-Apr-16 14:30N 23°34' E 119°35'0 0.0
2018-Apr-16 14:00N 23°34' E 119°35'0 0.0
2018-Apr-16 13:31N 23°34' E 119°35'0 0.0
2018-Apr-16 13:00N 23°34' E 119°35'0 0.0
2018-Apr-16 12:30N 23°34' E 119°35'0 0.0
2018-Apr-16 11:59N 23°34' E 119°35'0 0.0
2018-Apr-16 11:30N 23°34' E 119°35'0 0.0
2018-Apr-16 11:00N 23°34' E 119°35'0 0.0
2018-Apr-16 10:29N 23°34' E 119°35'0 0.0
2018-Apr-16 10:00N 23°34' E 119°35'0 0.0
2018-Apr-16 09:29N 23°34' E 119°35'0 0.0
2018-Apr-16 09:00N 23°34' E 119°35'0 0.0
2018-Apr-16 08:30N 23°34' E 119°35'0 0.0
2018-Apr-16 08:00N 23°34' E 119°35'0 0.0
2018-Apr-16 07:30N 23°34' E 119°35'0 0.0
2018-Apr-16 07:00N 23°34' E 119°35'0 0.0
2018-Apr-16 06:30N 23°34' E 119°35'0 0.0
2018-Apr-16 06:00N 23°34' E 119°35'0 0.0
2018-Apr-16 05:29N 23°34' E 119°35'0 0.0
2018-Apr-16 05:00N 23°34' E 119°35'0 0.0
2018-Apr-16 04:27N 23°34' E 119°35'0 0.0
2018-Apr-16 03:59N 23°34' E 119°35'0 0.0
2018-Apr-16 03:30N 23°34' E 119°35'0 0.0
2018-Apr-16 02:59N 23°34' E 119°35'0 0.0
2018-Apr-16 02:27N 23°34' E 119°35'0 0.0
2018-Apr-16 02:00N 23°34' E 119°35'0 0.0
2018-Apr-16 01:30N 23°34' E 119°35'0 0.0
2018-Apr-16 01:00N 23°34' E 119°35'0 0.0
2018-Apr-16 00:30N 23°34' E 119°35'0 0.0
2018-Apr-15 06:09N 23°34' E 119°35'0 0.0
2018-Apr-15 05:57N 23°34' E 119°35'0 0.0
2018-Apr-15 03:53N 23°34' E 119°35'0 0.0
2018-Apr-15 03:30N 23°34' E 119°35'0 0.0
2018-Apr-15 03:00N 23°34' E 119°35'0 0.0
2018-Apr-15 02:31N 23°34' E 119°35'0 0.0
2018-Apr-15 02:00N 23°34' E 119°35'0 0.0
2018-Apr-15 01:28N 23°34' E 119°35'0 0.0
2018-Apr-15 00:59N 23°34' E 119°35'0 0.0
2018-Apr-15 00:13N 23°34' E 119°35'0 0.0
2018-Apr-14 23:59N 23°34' E 119°35'0 0.0
2018-Apr-14 23:30N 23°34' E 119°35'0 0.0
2018-Apr-14 23:00N 23°34' E 119°35'0 0.0
2018-Apr-14 22:29N 23°34' E 119°35'0 0.0
2018-Apr-14 22:00N 23°34' E 119°35'0 0.0
2018-Apr-14 21:30N 23°34' E 119°35'0 0.0
2018-Apr-14 20:59N 23°34' E 119°35'0 0.0
2018-Apr-14 20:31N 23°34' E 119°35'0 0.0
2018-Apr-14 20:00N 23°34' E 119°35'0 0.0
2018-Apr-14 19:29N 23°34' E 119°35'0 0.0
2018-Apr-14 19:00N 23°34' E 119°35'0 0.0
2018-Apr-14 18:30N 23°34' E 119°35'0 0.0
2018-Apr-14 17:55N 23°34' E 119°35'0 0.0
2018-Apr-14 17:30N 23°34' E 119°35'0 0.0
2018-Apr-14 17:00N 23°34' E 119°35'0 0.0
2018-Apr-14 16:30N 23°34' E 119°35'0 0.0
2018-Apr-14 15:58N 23°34' E 119°35'0 0.0
2018-Apr-14 15:30N 23°34' E 119°35'0 0.0
2018-Apr-14 15:00N 23°34' E 119°35'0 0.0
2018-Apr-14 14:29N 23°34' E 119°35'0 0.0
2018-Apr-14 14:00N 23°34' E 119°35'0 0.0
2018-Apr-14 13:29N 23°34' E 119°35'0 0.0
2018-Apr-14 13:00N 23°34' E 119°35'0 0.0
2018-Apr-14 12:31N 23°34' E 119°35'0 0.0
2018-Apr-14 12:01N 23°34' E 119°35'0 0.0
2018-Apr-14 11:30N 23°34' E 119°35'0 0.0
2018-Apr-14 10:58N 23°34' E 119°35'0 0.0
2018-Apr-14 10:30N 23°34' E 119°35'0 0.0
2018-Apr-14 10:00N 23°34' E 119°35'0 0.0
2018-Apr-14 09:30N 23°34' E 119°35'0 0.0
2018-Apr-14 09:00N 23°34' E 119°35'0 0.0
2018-Apr-14 08:29N 23°34' E 119°35'0 0.0
2018-Apr-14 08:00N 23°34' E 119°35'0 0.0
2018-Apr-14 07:29N 23°34' E 119°35'0 0.0
2018-Apr-14 06:59N 23°34' E 119°35'0 0.0
2018-Apr-14 06:30N 23°34' E 119°35'0 0.0
2018-Apr-14 05:59N 23°34' E 119°35'0 0.0
2018-Apr-14 05:30N 23°34' E 119°35'0 0.0
2018-Apr-14 05:00N 23°34' E 119°35'0 0.0
2018-Apr-14 04:26N 23°34' E 119°35'0 0.0
2018-Apr-14 04:00N 23°34' E 119°35'0 0.0
2018-Apr-14 03:30N 23°34' E 119°35'0 0.0
2018-Apr-14 02:59N 23°34' E 119°35'0 0.0
2018-Apr-14 02:31N 23°34' E 119°35'0 0.0
2018-Apr-14 02:00N 23°34' E 119°35'0 0.0
2018-Apr-14 01:29N 23°34' E 119°35'  

Dump ship's entire track history